Time;durP1;ratioP1;P1;durP2;ratioP2;P2;SDS_P1;SDS_P2;PMS_P1;PMS_P2;Temp;Humidity;BMP_temperature;BMP_pressure;BME280_temperature;BME280_humidity;BME280_pressure;Samples;Min_cycle;Max_cycle;Signal;HPM_P1;HPM_P2
2023/08/24 00:01:47;;;;;;;3.33;2.37;;;26.00;92.80;;;;;;5043089;28;20492;-84
2023/08/24 00:04:16;;;;;;;2.97;2.60;;;25.90;92.80;;;;;;5055903;28;20529;-84
2023/08/24 00:06:41;;;;;;;2.77;2.30;;;25.90;92.90;;;;;;5053963;28;20287;-84
2023/08/24 00:09:07;;;;;;;2.60;2.40;;;25.90;92.90;;;;;;5070698;28;20235;-84
2023/08/24 00:11:33;;;;;;;3.67;2.30;;;25.90;92.90;;;;;;5054298;28;20619;-84
2023/08/24 00:13:59;;;;;;;2.80;2.20;;;25.90;92.90;;;;;;5049148;28;20705;-84
2023/08/24 00:16:24;;;;;;;2.77;2.13;;;25.90;93.20;;;;;;5049717;28;20195;-84
2023/08/24 00:18:50;;;;;;;2.80;2.33;;;25.90;92.90;;;;;;5048918;28;20620;-84
2023/08/24 00:21:22;;;;;;;3.50;2.50;;;25.90;92.90;;;;;;5074994;28;20179;-84
2023/08/24 00:23:48;;;;;;;3.93;2.40;;;25.80;92.90;;;;;;5056011;28;20190;-84
2023/08/24 00:26:16;;;;;;;5.27;2.30;;;25.80;92.90;;;;;;5034335;28;20269;-84
2023/08/24 00:28:45;;;;;;;2.73;2.20;;;25.80;92.90;;;;;;5075063;28;20184;-84
2023/08/24 00:31:11;;;;;;;2.83;2.43;;;25.80;93.00;;;;;;5075566;28;20216;-84
2023/08/24 00:33:40;;;;;;;4.13;2.20;;;25.80;92.90;;;;;;5055086;28;20261;-84
2023/08/24 00:36:08;;;;;;;2.30;2.10;;;25.80;93.00;;;;;;5053467;28;20290;-84
2023/08/24 00:38:34;;;;;;;2.93;2.30;;;25.80;93.00;;;;;;5074311;28;20190;-84
2023/08/24 00:41:00;;;;;;;4.50;2.63;;;25.70;93.00;;;;;;5074120;28;20187;-84
2023/08/24 00:43:27;;;;;;;2.40;2.20;;;25.70;93.00;;;;;;5057417;28;20179;-84
2023/08/24 00:45:58;;;;;;;3.03;2.40;;;25.70;93.00;;;;;;5074505;28;20179;-85
2023/08/24 00:48:28;;;;;;;2.97;2.17;;;25.70;93.00;;;;;;5075537;28;20202;-84
2023/08/24 00:50:55;;;;;;;2.90;2.30;;;25.70;93.10;;;;;;5052023;28;20207;-84
2023/08/24 00:53:24;;;;;;;3.83;2.20;;;25.70;93.10;;;;;;5075567;28;20244;-84
2023/08/24 00:55:52;;;;;;;3.40;2.30;;;25.70;93.10;;;;;;5074864;28;20601;-84
2023/08/24 00:58:21;;;;;;;4.63;2.47;;;25.70;93.10;;;;;;5070745;28;20219;-84
2023/08/24 01:00:52;;;;;;;2.83;2.23;;;25.70;93.10;;;;;;5049148;28;20177;-84
2023/08/24 01:03:26;;;;;;;2.40;2.20;;;25.60;93.10;;;;;;5051823;28;20184;-84
2023/08/24 01:05:52;;;;;;;2.30;2.10;;;25.60;93.10;;;;;;5059518;28;20278;-84
2023/08/24 01:08:28;;;;;;;2.20;2.00;;;25.70;93.20;;;;;;5057160;28;20310;-84
2023/08/24 01:11:12;;;;;;;3.03;2.17;;;25.60;93.10;;;;;;5072174;28;20210;-84
2023/08/24 01:14:09;;;;;;;2.63;2.30;;;25.60;93.10;;;;;;5073755;28;20178;-84
2023/08/24 01:16:40;;;;;;;3.90;2.17;;;25.60;93.10;;;;;;5040323;28;20475;-84
2023/08/24 01:19:10;;;;;;;3.60;2.70;;;25.60;93.20;;;;;;5055526;28;20545;-84
2023/08/24 01:21:37;;;;;;;2.77;2.30;;;25.60;93.10;;;;;;5055601;28;20700;-83
2023/08/24 01:24:25;;;;;;;2.70;2.27;;;25.60;93.20;;;;;;5071873;28;20485;-85
2023/08/24 01:26:52;;;;;;;2.73;2.50;;;25.50;93.20;;;;;;5055471;28;20223;-85
2023/08/24 01:29:21;;;;;;;2.77;2.33;;;25.50;93.20;;;;;;5071991;28;20252;-84
2023/08/24 01:31:49;;;;;;;2.93;2.20;;;25.50;93.20;;;;;;5046113;28;20294;-84
2023/08/24 01:34:18;;;;;;;2.20;2.00;;;25.50;93.20;;;;;;5055119;28;20211;-84
2023/08/24 01:36:45;;;;;;;2.30;2.10;;;25.50;93.60;;;;;;5059467;28;20180;-84
2023/08/24 01:39:20;;;;;;;3.47;2.23;;;25.50;93.20;;;;;;5074582;28;20167;-84
2023/08/24 01:41:53;;;;;;;3.67;2.30;;;25.40;93.20;;;;;;5053331;28;20191;-84
2023/08/24 01:44:21;;;;;;;2.53;2.33;;;25.50;93.30;;;;;;5057102;28;20569;-84
2023/08/24 01:46:49;;;;;;;2.47;2.10;;;25.50;93.20;;;;;;5053471;28;20577;-84
2023/08/24 01:49:17;;;;;;;3.27;2.40;;;25.40;93.20;;;;;;5056216;28;20215;-84
2023/08/24 01:51:46;;;;;;;2.50;2.30;;;25.50;93.20;;;;;;5073734;28;20202;-84
2023/08/24 01:54:13;;;;;;;2.77;2.20;;;25.40;93.20;;;;;;5057831;28;20178;-84
2023/08/24 01:56:41;;;;;;;3.20;2.17;;;25.40;93.30;;;;;;5050488;28;20172;-84
2023/08/24 01:59:08;;;;;;;3.77;2.47;;;25.40;93.30;;;;;;5069425;28;20180;-84
2023/08/24 02:01:42;;;;;;;3.30;2.40;;;25.40;93.20;;;;;;5049132;28;20172;-84
2023/08/24 02:04:11;;;;;;;2.50;2.20;;;25.40;93.50;;;;;;5069685;28;20180;-85
2023/08/24 02:06:40;;;;;;;2.93;2.37;;;25.40;93.20;;;;;;5050025;28;21060;-84
2023/08/24 02:09:05;;;;;;;2.40;2.20;;;25.40;93.30;;;;;;5045758;28;20215;-84
2023/08/24 02:11:33;;;;;;;2.57;2.10;;;25.40;93.30;;;;;;5073035;28;20250;-85
2023/08/24 02:13:59;;;;;;;3.07;2.30;;;25.30;93.30;;;;;;5072541;28;20195;-84
2023/08/24 02:16:25;;;;;;;2.60;2.10;;;25.40;93.30;;;;;;5057042;28;20421;-84
2023/08/24 02:18:51;;;;;;;3.00;2.10;;;25.40;93.30;;;;;;5047662;28;20580;-84
2023/08/24 02:21:17;;;;;;;2.73;2.10;;;25.30;93.30;;;;;;5073121;28;20544;-84
2023/08/24 02:23:45;;;;;;;3.07;2.43;;;25.30;93.30;;;;;;5055171;28;20230;-84
2023/08/24 02:26:14;;;;;;;2.67;2.20;;;25.30;93.30;;;;;;5071327;28;20232;-85
2023/08/24 02:28:42;;;;;;;2.93;2.40;;;25.30;93.30;;;;;;5051921;28;20183;-84
2023/08/24 02:31:10;;;;;;;4.97;2.30;;;25.30;93.30;;;;;;5056978;28;20416;-84
2023/08/24 02:33:39;;;;;;;2.70;2.40;;;25.30;93.40;;;;;;5060365;28;20198;-84
2023/08/24 02:36:07;;;;;;;2.57;2.30;;;25.30;93.30;;;;;;5047996;28;20176;-84
2023/08/24 02:38:36;;;;;;;2.17;1.90;;;25.30;93.30;;;;;;5070891;28;20171;-84
2023/08/24 02:41:06;;;;;;;2.60;2.20;;;25.20;93.30;;;;;;5073313;28;20382;-84
2023/08/24 02:43:32;;;;;;;2.40;2.20;;;25.30;93.30;;;;;;5050469;28;20206;-84
2023/08/24 02:46:06;;;;;;;2.33;1.93;;;25.20;93.30;;;;;;5073590;28;20470;-84
2023/08/24 02:48:35;;;;;;;2.63;2.40;;;25.20;93.30;;;;;;5074795;28;20172;-84
2023/08/24 02:51:06;;;;;;;4.10;2.27;;;25.20;93.20;;;;;;5072373;28;20217;-84
2023/08/24 02:53:32;;;;;;;3.00;2.40;;;25.20;93.30;;;;;;5055121;28;20172;-84
2023/08/24 02:55:58;;;;;;;2.47;2.20;;;25.20;93.20;;;;;;5071625;28;20175;-84
2023/08/24 02:58:30;;;;;;;3.07;2.20;;;25.20;93.30;;;;;;5054393;28;20182;-84
2023/08/24 03:00:56;;;;;;;2.67;2.20;;;25.20;93.30;;;;;;5071678;28;20184;-84
2023/08/24 03:03:25;;;;;;;3.80;2.43;;;25.10;93.30;;;;;;5052640;28;20214;-84
2023/08/24 03:05:57;;;;;;;2.77;2.37;;;25.10;93.40;;;;;;5049679;28;20288;-84
2023/08/24 03:08:25;;;;;;;2.77;2.30;;;25.10;93.30;;;;;;5073075;28;20179;-84
2023/08/24 03:10:50;;;;;;;2.63;2.23;;;25.10;93.40;;;;;;5072616;28;20277;-84
2023/08/24 03:13:22;;;;;;;2.63;2.30;;;25.10;93.40;;;;;;5054641;28;20187;-84
2023/08/24 03:15:48;;;;;;;2.83;2.23;;;25.10;93.30;;;;;;5059125;28;20291;-84
2023/08/24 03:18:16;;;;;;;2.40;2.07;;;25.10;93.30;;;;;;5056768;28;20251;-84
2023/08/24 03:20:42;;;;;;;2.87;2.40;;;25.10;93.30;;;;;;5057649;28;20541;-84
2023/08/24 03:23:08;;;;;;;2.97;2.33;;;25.10;93.30;;;;;;5057255;28;20187;-84
2023/08/24 03:25:41;;;;;;;3.57;2.30;;;25.10;93.30;;;;;;5059586;28;20184;-84
2023/08/24 03:28:08;;;;;;;4.07;2.43;;;25.10;93.20;;;;;;5070794;28;20280;-84
2023/08/24 03:30:36;;;;;;;2.30;2.10;;;25.10;93.30;;;;;;5066429;28;20301;-83
2023/08/24 03:33:05;;;;;;;3.63;2.27;;;25.10;93.30;;;;;;5055696;28;20454;-84
2023/08/24 03:35:32;;;;;;;2.73;2.20;;;25.10;93.30;;;;;;5050056;28;20438;-84
2023/08/24 03:37:58;;;;;;;2.83;2.53;;;25.00;93.30;;;;;;5050990;28;20242;-84
2023/08/24 03:40:24;;;;;;;2.43;2.20;;;25.00;93.40;;;;;;5062891;28;20195;-84
2023/08/24 03:42:53;;;;;;;2.80;2.20;;;25.00;93.40;;;;;;5050158;28;20188;-84
2023/08/24 03:45:19;;;;;;;2.90;2.37;;;25.00;93.40;;;;;;5071486;28;20182;-84
2023/08/24 03:47:48;;;;;;;4.10;2.20;;;25.00;93.40;;;;;;5073717;28;20187;-84
2023/08/24 03:50:17;;;;;;;2.73;2.30;;;24.90;93.40;;;;;;5075543;28;20207;-84
2023/08/24 03:52:43;;;;;;;3.47;2.23;;;24.90;93.40;;;;;;5073712;28;20184;-84
2023/08/24 03:55:12;;;;;;;3.83;2.27;;;25.00;93.40;;;;;;5075505;28;20249;-85
2023/08/24 03:57:40;;;;;;;2.73;2.50;;;24.90;93.50;;;;;;5060268;28;20348;-84
2023/08/24 04:00:10;;;;;;;2.47;2.27;;;24.90;93.40;;;;;;5055022;28;20591;-84
2023/08/24 04:02:37;;;;;;;3.50;2.30;;;24.90;93.40;;;;;;5071116;28;20172;-84
2023/08/24 04:05:03;;;;;;;3.80;2.30;;;24.90;93.40;;;;;;5053283;28;20537;-84
2023/08/24 04:07:33;;;;;;;2.90;2.30;;;24.90;93.40;;;;;;5057528;28;20184;-84
2023/08/24 04:09:58;;;;;;;2.33;2.13;;;24.90;93.40;;;;;;5072881;28;20179;-84
2023/08/24 04:12:24;;;;;;;2.43;2.20;;;24.90;93.40;;;;;;5055980;28;20215;-84
2023/08/24 04:14:49;;;;;;;2.87;2.53;;;24.90;93.40;;;;;;5056166;28;20256;-84
2023/08/24 04:17:18;;;;;;;2.60;2.23;;;24.80;93.50;;;;;;5052417;28;20180;-84
2023/08/24 04:19:46;;;;;;;2.93;2.40;;;24.90;93.40;;;;;;5057689;28;20179;-84
2023/08/24 04:22:12;;;;;;;2.67;2.30;;;24.80;93.50;;;;;;5071119;28;20427;-85
2023/08/24 04:24:41;;;;;;;3.40;2.47;;;24.80;93.50;;;;;;5053935;28;20180;-84
2023/08/24 04:27:06;;;;;;;2.80;2.47;;;24.80;93.50;;;;;;5060122;28;20175;-84
2023/08/24 04:29:35;;;;;;;3.90;2.60;;;24.80;93.60;;;;;;5069931;28;20442;-84
2023/08/24 04:32:04;;;;;;;3.13;2.47;;;24.80;93.60;;;;;;5048326;28;20360;-84
2023/08/24 04:34:29;;;;;;;3.33;2.60;;;24.80;93.70;;;;;;5066250;28;20554;-84
2023/08/24 04:36:58;;;;;;;5.00;2.60;;;24.80;93.60;;;;;;5069431;28;20187;-84
2023/08/24 04:39:25;;;;;;;2.67;2.17;;;24.80;93.50;;;;;;5053388;28;20264;-84
2023/08/24 04:41:50;;;;;;;2.87;2.40;;;24.80;93.60;;;;;;5045867;28;20169;-85
2023/08/24 04:44:16;;;;;;;2.93;2.50;;;24.80;93.60;;;;;;5054505;28;20188;-85
2023/08/24 04:47:20;;;;;;;2.77;2.37;;;24.80;93.70;;;;;;5050314;28;20629;-85
2023/08/24 04:50:07;;;;;;;5.27;2.60;;;24.80;93.70;;;;;;5052453;28;20202;-85
2023/08/24 04:52:48;;;;;;;3.53;2.50;;;24.80;93.70;;;;;;5066750;28;20278;-85
2023/08/24 04:55:16;;;;;;;4.57;2.60;;;24.70;93.70;;;;;;5053701;28;20179;-84
2023/08/24 04:57:42;;;;;;;2.93;2.50;;;24.70;93.70;;;;;;5072743;28;20282;-84
2023/08/24 05:00:55;;;;;;;2.97;2.43;;;24.70;93.70;;;;;;5057190;28;20294;-85
2023/08/24 05:03:21;;;;;;;5.63;2.80;;;24.70;93.70;;;;;;5071083;28;20274;-85
2023/08/24 05:05:49;;;;;;;5.00;2.63;;;24.70;93.70;;;;;;5051316;28;20279;-84
2023/08/24 05:08:15;;;;;;;5.50;2.70;;;24.70;93.70;;;;;;5051143;28;20588;-85
2023/08/24 05:10:41;;;;;;;4.23;2.83;;;24.70;93.70;;;;;;5053662;28;20203;-85
2023/08/24 05:13:12;;;;;;;4.50;2.53;;;24.70;93.70;;;;;;5040661;28;20199;-84
2023/08/24 05:15:58;;;;;;;3.70;2.33;;;24.70;93.70;;;;;;5045485;28;20184;-84
2023/08/24 05:18:24;;;;;;;3.33;2.60;;;24.70;93.70;;;;;;5059707;28;20195;-84
2023/08/24 05:20:52;;;;;;;3.67;2.70;;;24.70;93.70;;;;;;5063022;28;20179;-84
2023/08/24 05:23:18;;;;;;;3.63;2.83;;;24.70;93.70;;;;;;5041299;28;20235;-84
2023/08/24 05:25:50;;;;;;;5.10;3.03;;;24.60;93.70;;;;;;5058941;28;20215;-84
2023/08/24 05:28:18;;;;;;;3.07;2.77;;;24.60;93.70;;;;;;5040486;28;20643;-84
2023/08/24 05:30:44;;;;;;;3.17;2.73;;;24.60;93.70;;;;;;5059053;28;20219;-84
2023/08/24 05:33:11;;;;;;;4.67;2.80;;;24.70;93.70;;;;;;5042419;28;20187;-84
2023/08/24 05:35:36;;;;;;;4.77;2.93;;;24.60;93.60;;;;;;5055322;28;20291;-84
2023/08/24 05:38:02;;;;;;;4.67;3.00;;;24.70;93.70;;;;;;5040092;28;20240;-84
2023/08/24 05:40:28;;;;;;;2.97;2.57;;;24.60;93.80;;;;;;5054523;28;20196;-84
2023/08/24 05:42:56;;;;;;;3.63;2.93;;;24.70;93.70;;;;;;5056142;28;20270;-84
2023/08/24 05:45:25;;;;;;;4.80;2.83;;;24.60;93.60;;;;;;5033386;28;20188;-84
2023/08/24 05:47:53;;;;;;;3.07;2.70;;;24.60;93.90;;;;;;5044251;28;20730;-84
2023/08/24 05:50:18;;;;;;;3.30;2.70;;;24.60;93.70;;;;;;5039272;28;20445;-84
2023/08/24 05:52:44;;;;;;;3.57;2.43;;;24.60;93.70;;;;;;5038064;28;20286;-84
2023/08/24 05:55:13;;;;;;;4.00;3.30;;;24.60;93.70;;;;;;5055650;28;20274;-84
2023/08/24 05:57:41;;;;;;;3.00;2.70;;;24.60;93.70;;;;;;5053384;28;20545;-84
2023/08/24 06:00:22;;;;;;;4.47;2.70;;;24.60;93.80;;;;;;5036740;28;20184;-84
2023/08/24 06:02:47;;;;;;;3.60;3.00;;;24.60;93.80;;;;;;5041071;28;20258;-84
2023/08/24 06:05:17;;;;;;;4.50;2.90;;;24.60;93.80;;;;;;5037613;28;20206;-84
2023/08/24 06:07:43;;;;;;;3.80;2.60;;;24.60;93.80;;;;;;5053712;28;20179;-84
2023/08/24 06:10:12;;;;;;;5.13;2.83;;;24.60;93.80;;;;;;5045795;28;20227;-84
2023/08/24 06:12:41;;;;;;;3.53;2.73;;;24.60;93.80;;;;;;5036791;28;20177;-84
2023/08/24 06:15:16;;;;;;;4.53;2.90;;;24.60;93.80;;;;;;5047270;28;20584;-84
2023/08/24 06:17:48;;;;;;;3.50;3.10;;;24.60;93.70;;;;;;5037550;28;20765;-84
2023/08/24 06:20:16;;;;;;;3.93;2.63;;;24.60;93.70;;;;;;5036785;28;20316;-84
2023/08/24 06:22:45;;;;;;;3.20;2.70;;;24.60;93.70;;;;;;5034941;28;20179;-84
2023/08/24 06:25:14;;;;;;;3.83;2.93;;;24.60;93.70;;;;;;5031898;28;20673;-85
2023/08/24 06:27:40;;;;;;;5.30;3.00;;;24.60;93.60;;;;;;5035397;28;20172;-84
2023/08/24 06:30:09;;;;;;;3.17;2.87;;;24.60;93.60;;;;;;5032425;28;20219;-84
2023/08/24 06:32:39;;;;;;;3.70;3.03;;;24.60;93.60;;;;;;5035396;28;20637;-84
2023/08/24 06:35:07;;;;;;;3.13;2.50;;;24.60;93.60;;;;;;5030241;28;20480;-84
2023/08/24 06:37:33;;;;;;;4.30;2.93;;;24.60;93.60;;;;;;5047346;28;20263;-84
2023/08/24 06:39:59;;;;;;;4.13;2.90;;;24.60;93.60;;;;;;5031020;28;20199;-84
2023/08/24 06:42:24;;;;;;;4.57;2.87;;;24.60;93.60;;;;;;5034316;28;20266;-84
2023/08/24 06:44:50;;;;;;;5.20;3.07;;;24.60;93.50;;;;;;5051124;28;20383;-84
2023/08/24 06:47:16;;;;;;;4.37;3.00;;;24.60;93.40;;;;;;5039751;28;20615;-84
2023/08/24 06:49:43;;;;;;;4.60;2.93;;;24.70;93.30;;;;;;5050421;28;20580;-87
2023/08/24 06:52:08;;;;;;;4.07;3.30;;;24.70;93.00;;;;;;5044107;28;20234;-86
2023/08/24 06:54:37;;;;;;;3.90;3.10;;;24.80;92.80;;;;;;5053888;28;20188;-86
2023/08/24 06:57:09;;;;;;;5.93;3.17;;;24.90;92.60;;;;;;5055017;28;20246;-87
2023/08/24 07:00:06;;;;;;;6.30;3.40;;;24.90;92.50;;;;;;5047550;28;20277;-85
2023/08/24 07:02:39;;;;;;;4.87;3.10;;;24.90;92.40;;;;;;5056104;28;20371;-86
2023/08/24 07:05:05;;;;;;;3.90;3.10;;;24.90;92.50;;;;;;5040333;28;20190;-85
2023/08/24 07:07:35;;;;;;;4.23;3.00;;;25.00;92.40;;;;;;5056878;28;20314;-85
2023/08/24 07:10:01;;;;;;;4.07;2.80;;;25.10;92.40;;;;;;5060413;28;20180;-85
2023/08/24 07:12:28;;;;;;;4.13;3.17;;;25.10;92.20;;;;;;5038245;28;20241;-85
2023/08/24 07:14:53;;;;;;;4.10;3.20;;;25.20;92.10;;;;;;5037725;28;20184;-85
2023/08/24 07:17:22;;;;;;;3.73;3.00;;;25.20;91.90;;;;;;5036417;28;20194;-85
2023/08/24 07:19:48;;;;;;;3.30;2.90;;;25.40;91.90;;;;;;5036864;28;20364;-85
2023/08/24 07:22:14;;;;;;;3.40;3.10;;;25.40;91.60;;;;;;5052333;28;20286;-85
2023/08/24 07:24:41;;;;;;;4.50;3.00;;;25.50;91.50;;;;;;5038664;28;20179;-85
2023/08/24 07:27:08;;;;;;;5.53;3.00;;;25.60;91.40;;;;;;5052579;28;20167;-85
2023/08/24 07:29:34;;;;;;;3.97;2.90;;;25.60;91.20;;;;;;5037032;28;20618;-85
2023/08/24 07:32:00;;;;;;;4.93;3.37;;;25.70;91.00;;;;;;5055523;28;20393;-85
2023/08/24 07:34:26;;;;;;;5.73;3.17;;;25.80;91.00;;;;;;5040557;28;20213;-86
2023/08/24 07:36:52;;;;;;;5.03;3.10;;;25.80;90.70;;;;;;5051816;28;20241;-86
2023/08/24 07:39:20;;;;;;;4.88;3.20;;;25.90;90.70;;;;;;5033311;28;20187;-86
2023/08/24 07:41:47;;;;;;;4.15;2.85;;;26.00;90.40;;;;;;5037371;28;20187;-85
2023/08/24 07:44:15;;;;;;;4.53;3.10;;;26.00;90.50;;;;;;5042919;28;20180;-85
2023/08/24 07:46:44;;;;;;;4.45;3.33;;;26.10;90.10;;;;;;5055510;28;20432;-86
2023/08/24 07:49:15;;;;;;;4.32;3.10;;;26.30;89.60;;;;;;5040398;28;20175;-85
2023/08/24 07:51:42;;;;;;;3.70;3.05;;;26.50;88.40;;;;;;5062273;28;20215;-85
2023/08/24 07:54:11;;;;;;;6.78;3.38;;;26.90;86.40;;;;;;5041981;28;20180;-86
2023/08/24 07:56:40;;;;;;;3.97;3.22;;;27.20;84.90;;;;;;5055104;28;20508;-85
2023/08/24 07:59:09;;;;;;;5.55;3.25;;;27.50;82.90;;;;;;5057600;28;20241;-85
2023/08/24 08:01:37;;;;;;;4.43;3.25;;;27.80;81.40;;;;;;5041497;28;20203;-84
2023/08/24 08:04:03;;;;;;;3.90;3.00;;;27.90;80.30;;;;;;5042986;28;20337;-84
2023/08/24 08:06:32;;;;;;;5.32;3.15;;;27.90;79.80;;;;;;5042155;28;20287;-85
2023/08/24 08:09:04;;;;;;;5.30;3.10;;;27.90;80.00;;;;;;5041981;28;20248;-84
2023/08/24 08:11:30;;;;;;;3.80;3.28;;;28.10;79.30;;;;;;5040032;28;20287;-85
2023/08/24 08:13:58;;;;;;;3.83;3.28;;;28.30;78.20;;;;;;5038739;28;20184;-85
2023/08/24 08:16:24;;;;;;;4.18;3.22;;;28.50;77.00;;;;;;5059327;28;20183;-85
2023/08/24 08:18:50;;;;;;;4.03;2.80;;;28.70;76.00;;;;;;5062910;28;20168;-85
2023/08/24 08:21:30;;;;;;;4.18;2.95;;;28.80;75.20;;;;;;5041459;28;20183;-85
2023/08/24 08:24:13;;;;;;;5.05;3.58;;;29.00;74.30;;;;;;5043500;28;20215;-85
2023/08/24 08:26:42;;;;;;;3.85;3.40;;;29.20;73.20;;;;;;5058792;28;20203;-85
2023/08/24 08:29:11;;;;;;;4.88;3.35;;;29.40;71.80;;;;;;5037246;28;20375;-84
2023/08/24 08:31:46;;;;;;;4.53;3.35;;;29.50;71.00;;;;;;5042232;28;20359;-84
2023/08/24 08:34:12;;;;;;;3.45;3.13;;;29.70;70.40;;;;;;5051944;28;20321;-85
2023/08/24 08:36:41;;;;;;;4.25;3.25;;;29.80;69.60;;;;;;5040948;28;20341;-85
2023/08/24 08:39:07;;;;;;;4.00;3.20;;;29.90;69.10;;;;;;5034632;28;20184;-85
2023/08/24 08:41:38;;;;;;;4.25;3.25;;;29.90;68.90;;;;;;5040893;28;20183;-85
2023/08/24 08:44:06;;;;;;;4.15;3.28;;;29.80;68.90;;;;;;5058520;28;20440;-85
2023/08/24 08:46:32;;;;;;;3.50;3.20;;;29.90;68.90;;;;;;5042943;28;20565;-85
2023/08/24 08:49:03;;;;;;;3.50;3.13;;;29.90;68.80;;;;;;5039542;28;20190;-85
2023/08/24 08:51:29;;;;;;;3.33;3.00;;;29.90;68.90;;;;;;5059897;28;20266;-85
2023/08/24 08:53:55;;;;;;;3.97;3.30;;;29.90;68.80;;;;;;5058907;28;20176;-85
2023/08/24 08:56:22;;;;;;;3.95;3.38;;;29.90;68.30;;;;;;5041609;28;20462;-85
2023/08/24 08:58:49;;;;;;;3.30;2.78;;;30.00;68.20;;;;;;5040148;28;20593;-85
2023/08/24 09:01:19;;;;;;;2.92;2.72;;;30.00;68.00;;;;;;5060840;28;20242;-85
2023/08/24 09:03:45;;;;;;;3.15;2.85;;;30.00;67.90;;;;;;5059156;28;20214;-85
2023/08/24 09:06:14;;;;;;;4.22;3.28;;;30.10;67.80;;;;;;5058103;28;20208;-85
2023/08/24 09:08:40;;;;;;;3.22;2.90;;;30.10;67.50;;;;;;5058396;28;20274;-85
2023/08/24 09:11:21;;;;;;;4.50;3.40;;;30.20;67.40;;;;;;5050833;28;20254;-85
2023/08/24 09:13:53;;;;;;;3.42;3.13;;;30.20;67.40;;;;;;5042666;28;20172;-85
2023/08/24 09:16:43;;;;;;;4.10;3.03;;;30.10;67.60;;;;;;5057702;28;20266;-85
2023/08/24 09:19:14;;;;;;;4.07;3.15;;;30.20;67.20;;;;;;5042289;28;20182;-85
2023/08/24 09:21:43;;;;;;;3.55;3.22;;;30.30;67.70;;;;;;5041521;28;20275;-85
2023/08/24 09:24:15;;;;;;;3.60;2.90;;;30.30;67.00;;;;;;5059700;28;20293;-84
2023/08/24 09:26:50;;;;;;;3.75;2.95;;;30.30;66.60;;;;;;5040074;28;20345;-84
2023/08/24 09:29:16;;;;;;;3.60;2.97;;;30.30;66.80;;;;;;5058782;28;20190;-85
2023/08/24 09:31:45;;;;;;;3.63;2.83;;;30.30;67.00;;;;;;5037655;28;20204;-84
2023/08/24 09:34:26;;;;;;;3.97;3.22;;;30.20;67.30;;;;;;5035927;28;20194;-84
2023/08/24 09:36:51;;;;;;;3.30;2.80;;;30.20;67.50;;;;;;5053755;28;20196;-84
2023/08/24 09:39:20;;;;;;;3.97;3.00;;;30.10;68.00;;;;;;5053058;28;20176;-84
2023/08/24 09:41:50;;;;;;;3.40;3.10;;;30.00;68.40;;;;;;5055274;28;20562;-84
2023/08/24 09:44:22;;;;;;;4.22;3.10;;;29.90;69.00;;;;;;5034715;28;20477;-84
2023/08/24 09:46:51;;;;;;;3.30;3.00;;;29.80;69.40;;;;;;5058196;28;20265;-84
2023/08/24 09:49:16;;;;;;;3.72;2.88;;;29.70;70.00;;;;;;5033290;28;20378;-84
2023/08/24 09:51:46;;;;;;;3.08;2.80;;;29.60;70.40;;;;;;5053792;28;20203;-84
2023/08/24 09:54:13;;;;;;;2.90;2.55;;;29.60;71.00;;;;;;5052607;28;20176;-84
2023/08/24 09:56:43;;;;;;;2.97;2.67;;;29.60;71.20;;;;;;5039387;28;20452;-84
2023/08/24 09:59:21;;;;;;;3.80;2.97;;;29.60;71.50;;;;;;5036859;28;20203;-83
2023/08/24 10:01:51;;;;;;;3.20;2.70;;;29.60;71.40;;;;;;5038083;28;20215;-84
2023/08/24 10:04:24;;;;;;;2.92;2.60;;;29.60;72.10;;;;;;5056633;28;20184;-84
2023/08/24 10:06:58;;;;;;;3.40;2.60;;;29.50;72.40;;;;;;5036529;28;20180;-84
2023/08/24 10:09:35;;;;;;;3.25;2.90;;;29.50;72.70;;;;;;5051853;28;20178;-84
2023/08/24 10:12:05;;;;;;;3.47;2.90;;;29.50;73.00;;;;;;5051828;28;20552;-84
2023/08/24 10:15:13;;;;;;;4.07;2.75;;;29.60;73.20;;;;;;5034101;28;20245;-83
2023/08/24 10:17:43;;;;;;;3.50;2.90;;;29.50;73.40;;;;;;4982290;28;20496;-83
2023/08/24 10:20:12;;;;;;;3.47;2.80;;;29.40;73.80;;;;;;4982964;28;20281;-83
2023/08/24 10:22:41;;;;;;;3.17;2.83;;;29.40;74.30;;;;;;5005637;28;20213;-83
2023/08/24 10:25:08;;;;;;;3.28;2.80;;;29.40;74.20;;;;;;5053175;28;20399;-83
2023/08/24 10:27:43;;;;;;;3.03;2.70;;;29.40;74.60;;;;;;5051767;28;20187;-84
2023/08/24 10:30:11;;;;;;;3.78;2.80;;;29.40;74.80;;;;;;5039038;28;20538;-83
2023/08/24 10:32:37;;;;;;;3.28;2.72;;;29.30;75.70;;;;;;5035658;28;20305;-83
2023/08/24 10:35:04;;;;;;;3.55;3.00;;;29.30;75.40;;;;;;5053238;28;20306;-83
2023/08/24 10:37:30;;;;;;;2.63;2.42;;;29.20;76.00;;;;;;5055339;28;20192;-83
2023/08/24 10:39:56;;;;;;;2.88;2.30;;;29.20;76.70;;;;;;5036066;28;20619;-83
2023/08/24 10:42:26;;;;;;;3.10;2.55;;;29.10;77.30;;;;;;5036793;28;20453;-83
2023/08/24 10:44:55;;;;;;;3.05;2.70;;;29.00;77.50;;;;;;5048084;28;20283;-84
2023/08/24 10:47:24;;;;;;;2.92;2.30;;;28.90;78.00;;;;;;5037401;28;20184;-83
2023/08/24 10:49:56;;;;;;;3.75;2.75;;;28.90;78.20;;;;;;5036186;28;20176;-83
2023/08/24 10:52:23;;;;;;;3.03;2.70;;;29.00;78.40;;;;;;5052342;28;20269;-83
2023/08/24 10:54:51;;;;;;;2.88;2.58;;;28.90;78.40;;;;;;5035535;28;20341;-83
2023/08/24 10:57:24;;;;;;;2.72;2.38;;;29.00;78.50;;;;;;5037615;28;20387;-83
2023/08/24 11:00:10;;;;;;;4.70;2.53;;;29.00;78.90;;;;;;5036247;28;20270;-83
2023/08/24 11:02:46;;;;;;;3.63;2.50;;;29.00;78.80;;;;;;5052114;28;20337;-83
2023/08/24 11:05:19;;;;;;;2.67;2.47;;;29.00;78.90;;;;;;5032840;28;20172;-83
2023/08/24 11:07:59;;;;;;;2.80;2.50;;;29.00;79.30;;;;;;5040269;28;20575;-84
2023/08/24 11:10:41;;;;;;;3.65;2.65;;;28.90;79.70;;;;;;5052425;28;20245;-83
2023/08/24 11:13:09;;;;;;;2.42;2.20;;;28.90;79.90;;;;;;5034728;28;20203;-83
2023/08/24 11:15:43;;;;;;;2.70;2.50;;;28.90;80.10;;;;;;5037166;28;20226;-83
2023/08/24 11:18:20;;;;;;;2.92;2.20;;;28.90;80.00;;;;;;5051474;28;20424;-83
2023/08/24 11:20:47;;;;;;;2.53;2.20;;;28.90;80.40;;;;;;5034159;28;20282;-83
2023/08/24 11:23:14;;;;;;;2.60;2.40;;;28.90;80.80;;;;;;5030055;28;20176;-83
2023/08/24 11:25:40;;;;;;;2.97;2.28;;;28.80;81.30;;;;;;5034384;28;20379;-83
2023/08/24 11:28:09;;;;;;;3.05;2.30;;;28.90;81.20;;;;;;5034858;28;20210;-84
2023/08/24 11:30:35;;;;;;;2.50;2.30;;;28.90;81.50;;;;;;5050956;28;20223;-83
2023/08/24 11:33:02;;;;;;;2.67;2.47;;;28.80;81.60;;;;;;5031251;28;20180;-83
2023/08/24 11:35:35;;;;;;;3.17;2.42;;;28.80;81.70;;;;;;5035644;28;20368;-83
2023/08/24 11:38:01;;;;;;;4.20;2.33;;;28.80;81.90;;;;;;5033675;28;20172;-83
2023/08/24 11:40:27;;;;;;;2.38;2.15;;;28.80;81.70;;;;;;5032815;28;20179;-83
2023/08/24 11:42:56;;;;;;;3.65;2.40;;;28.90;81.70;;;;;;5051276;28;20167;-83
2023/08/24 11:45:23;;;;;;;4.28;2.60;;;28.90;81.80;;;;;;5035267;28;20186;-83
2023/08/24 11:47:53;;;;;;;2.67;2.40;;;28.90;82.20;;;;;;5032747;28;20237;-83
2023/08/24 11:50:19;;;;;;;3.67;2.80;;;28.90;82.50;;;;;;5051162;28;20171;-83
2023/08/24 11:52:47;;;;;;;2.88;2.45;;;28.80;82.90;;;;;;5032959;28;20173;-83
2023/08/24 11:55:13;;;;;;;2.92;2.35;;;28.80;83.20;;;;;;5036893;28;20188;-83
2023/08/24 11:57:38;;;;;;;2.60;2.40;;;28.90;83.20;;;;;;5036078;28;20183;-83
2023/08/24 12:00:05;;;;;;;2.95;2.50;;;28.80;82.90;;;;;;5048913;28;20763;-83
2023/08/24 12:02:34;;;;;;;2.55;2.35;;;28.90;83.10;;;;;;5051399;28;20185;-83
2023/08/24 12:05:06;;;;;;;2.63;2.40;;;28.90;83.50;;;;;;5032959;28;20187;-83
2023/08/24 12:07:35;;;;;;;2.90;2.40;;;28.90;82.90;;;;;;5052589;28;20226;-83
2023/08/24 12:10:12;;;;;;;2.65;2.08;;;28.90;82.90;;;;;;5053464;28;20195;-83
2023/08/24 12:12:41;;;;;;;2.70;2.10;;;28.90;83.10;;;;;;5040415;28;20215;-82
2023/08/24 12:15:07;;;;;;;2.90;2.28;;;28.90;83.30;;;;;;5038466;28;20326;-83
2023/08/24 12:17:46;;;;;;;3.03;2.40;;;28.90;83.70;;;;;;5038508;28;20191;-83
2023/08/24 12:20:22;;;;;;;2.80;2.40;;;28.90;83.60;;;;;;5038284;28;20213;-83
2023/08/24 12:22:58;;;;;;;2.70;2.35;;;28.90;83.70;;;;;;5034622;28;20187;-83
2023/08/24 12:25:28;;;;;;;3.15;2.35;;;28.90;83.60;;;;;;5039799;28;20179;-83
2023/08/24 12:28:09;;;;;;;2.22;2.03;;;28.90;83.60;;;;;;5052422;28;20176;-83
2023/08/24 12:30:51;;;;;;;2.70;2.30;;;28.90;83.90;;;;;;5056708;28;20299;-83
2023/08/24 12:33:33;;;;;;;2.53;2.20;;;28.90;84.20;;;;;;5060320;28;20211;-83
2023/08/24 12:35:59;;;;;;;2.40;2.20;;;28.90;84.00;;;;;;5041566;28;20357;-83
2023/08/24 12:38:27;;;;;;;3.00;2.25;;;28.90;84.30;;;;;;5046764;28;20318;-83
2023/08/24 12:40:56;;;;;;;2.30;2.10;;;28.90;84.30;;;;;;5033660;28;20396;-83
2023/08/24 12:43:26;;;;;;;2.67;2.35;;;28.90;84.10;;;;;;5033349;28;20541;-83
2023/08/24 12:45:55;;;;;;;2.58;2.30;;;28.90;84.00;;;;;;5034505;28;20244;-83
2023/08/24 12:48:20;;;;;;;2.67;2.25;;;28.90;84.20;;;;;;5052883;28;20198;-83
2023/08/24 12:50:46;;;;;;;2.92;2.25;;;28.90;84.60;;;;;;5037327;28;20208;-83
2023/08/24 12:53:12;;;;;;;2.40;2.20;;;28.90;84.80;;;;;;5034584;28;20211;-83
2023/08/24 12:55:40;;;;;;;2.22;2.00;;;28.80;84.80;;;;;;5036216;28;20184;-82
2023/08/24 12:58:09;;;;;;;3.03;2.00;;;28.90;84.90;;;;;;5053243;28;20360;-83
2023/08/24 13:00:37;;;;;;;2.63;2.03;;;28.90;84.90;;;;;;5037575;28;20190;-82